createdAt,value
2019-05-25T00:00:15.564Z,14.6
2019-05-25T00:01:18.035Z,14.8
2019-05-25T00:03:23.173Z,14.8
2019-05-25T00:05:28.047Z,14.9
2019-05-25T00:06:30.714Z,15
2019-05-25T00:07:32.890Z,14.8
2019-05-25T00:08:35.780Z,14.9
2019-05-25T00:10:40.460Z,14.7
2019-05-25T00:12:46.033Z,14.6
2019-05-25T00:13:48.261Z,14.8
2019-05-25T00:15:53.278Z,15
2019-05-25T00:17:57.694Z,14.9
2019-05-25T00:20:02.931Z,14.5
2019-05-25T00:21:06.229Z,14.8
2019-05-25T00:23:11.622Z,14.9
2019-05-25T00:25:17.019Z,14.7
2019-05-25T00:26:19.849Z,14.9
2019-05-25T00:27:22.032Z,14.8
2019-05-25T00:28:24.202Z,14.7
2019-05-25T00:30:29.057Z,14.8
2019-05-25T00:32:33.473Z,14.9
2019-05-25T00:33:35.673Z,15
2019-05-25T00:35:40.083Z,14.6
2019-05-25T00:37:44.429Z,14.9
2019-05-25T00:38:46.618Z,14.7
2019-05-25T00:39:48.793Z,14.8
2019-05-25T00:40:50.985Z,14.8
2019-05-25T00:42:55.398Z,14.8
2019-05-25T00:45:00.145Z,14.4
2019-05-25T00:46:02.661Z,14.5
2019-05-25T00:48:07.404Z,14.4
2019-05-25T00:50:11.809Z,14.4
2019-05-25T00:52:16.961Z,14.4
2019-05-25T00:53:19.520Z,14.7
2019-05-25T00:54:29.700Z,14.8
2019-05-25T00:55:31.871Z,14.8
2019-05-25T00:57:36.328Z,14.1
2019-05-25T00:59:41.022Z,14.6
2019-05-25T01:00:43.221Z,14.5
2019-05-25T01:02:49.217Z,14.1
2019-05-25T01:04:54.269Z,14.1
2019-05-25T01:05:56.439Z,14.4
2019-05-25T01:06:58.636Z,14.3
2019-05-25T01:08:01.199Z,14.6
2019-05-25T01:10:05.936Z,14.5
2019-05-25T01:12:10.828Z,14.2
2019-05-25T01:13:13.327Z,14.4
2019-05-25T01:15:18.163Z,14.2
2019-05-25T01:17:22.825Z,14.3
2019-05-25T01:18:25.011Z,14.1
2019-05-25T01:19:27.243Z,14.2
2019-05-25T01:20:29.410Z,14.4
2019-05-25T01:22:33.821Z,14.6
2019-05-25T01:24:46.360Z,14.4
2019-05-25T01:25:49.229Z,14.6
2019-05-25T01:26:51.679Z,14.6
2019-05-25T01:27:54.158Z,14.6
2019-05-25T01:29:59.392Z,14.3
2019-05-25T01:32:04.811Z,14.5
2019-05-25T01:33:07.027Z,14.4
2019-05-25T01:35:11.442Z,13.9
2019-05-25T01:37:15.880Z,14.4
2019-05-25T01:39:20.283Z,14.6
2019-05-25T01:40:22.483Z,14.6
2019-05-25T01:42:26.849Z,13.9
2019-05-25T01:44:31.578Z,14.4
2019-05-25T01:45:33.772Z,14.4
2019-05-25T01:46:35.992Z,14.4
2019-05-25T01:47:38.191Z,14
2019-05-25T01:49:42.637Z,14.5
2019-05-25T01:51:47.056Z,14.3
2019-05-25T01:52:49.651Z,14.4
2019-05-25T01:55:02.595Z,14.1
2019-05-25T01:56:04.769Z,14.4
2019-05-25T01:57:06.981Z,14.2
2019-05-25T01:59:11.799Z,14
2019-05-25T02:00:13.940Z,14
2019-05-25T02:02:19.152Z,14.2
2019-05-25T02:04:23.869Z,14.2
2019-05-25T02:05:26.621Z,14.3
2019-05-25T02:06:29.113Z,14.1
2019-05-25T02:07:31.295Z,14.3
2019-05-25T02:09:35.711Z,14
2019-05-25T02:11:40.151Z,14
2019-05-25T02:12:42.323Z,14
2019-05-25T02:14:46.755Z,14.2
2019-05-25T02:16:51.791Z,14.2
2019-05-25T02:18:56.630Z,14.2
2019-05-25T02:19:58.814Z,14.1
2019-05-25T02:22:03.969Z,13.9
2019-05-25T02:24:09.089Z,14
2019-05-25T02:26:22.170Z,13.6
2019-05-25T02:27:24.352Z,14
2019-05-25T02:29:29.167Z,13.9
2019-05-25T02:31:34.003Z,14.1
2019-05-25T02:32:36.201Z,14
2019-05-25T02:33:38.388Z,14
2019-05-25T02:34:41.113Z,13.9
2019-05-25T02:36:45.960Z,13.5
2019-05-25T02:38:50.373Z,13.9
2019-05-25T02:39:52.561Z,13.8
2019-05-25T02:41:57.275Z,13.8
2019-05-25T02:44:02.249Z,13.9
2019-05-25T02:45:04.719Z,13.9
2019-05-25T02:46:07.198Z,13.9
2019-05-25T02:47:09.358Z,13.7
2019-05-25T02:49:13.783Z,13.5
2019-05-25T02:51:18.502Z,13.7
2019-05-25T02:52:20.948Z,13.6
2019-05-25T02:54:25.918Z,13.6
2019-05-25T02:55:36.748Z,13.6
2019-05-25T02:56:38.910Z,13.7
2019-05-25T02:58:44.010Z,13.5
2019-05-25T02:59:46.771Z,13.3
2019-05-25T03:01:51.612Z,13.5
2019-05-25T03:03:56.924Z,13.5
2019-05-25T03:06:03.857Z,13.8
2019-05-25T03:07:06.950Z,13.7
2019-05-25T03:09:11.675Z,13.7
2019-05-25T03:11:16.111Z,14
2019-05-25T03:12:18.723Z,13.9
2019-05-25T03:13:20.882Z,13.9
2019-05-25T03:14:23.068Z,13.7
2019-05-25T03:16:27.761Z,13.9
2019-05-25T03:18:32.541Z,13.9
2019-05-25T03:19:34.754Z,13.9
2019-05-25T03:21:39.554Z,13.8
2019-05-25T03:23:44.225Z,14.1
2019-05-25T03:24:46.433Z,13.8
2019-05-25T03:25:51.732Z,13.9
2019-05-25T03:26:53.916Z,13.9
2019-05-25T03:28:58.332Z,14
2019-05-25T03:31:03.755Z,13.6
2019-05-25T03:32:06.861Z,13.6
2019-05-25T03:33:10.098Z,13.9
2019-05-25T03:34:12.980Z,14
2019-05-25T03:36:19.105Z,13.9
2019-05-25T03:38:24.162Z,13.6
2019-05-25T03:39:26.358Z,13.5
2019-05-25T03:41:31.374Z,13.8
2019-05-25T03:43:36.142Z,13.9
2019-05-25T03:45:40.855Z,14
2019-05-25T03:46:43.023Z,13.9
2019-05-25T03:48:47.713Z,13.8
2019-05-25T03:50:52.600Z,13.9
2019-05-25T03:51:54.861Z,13.7
2019-05-25T03:52:57.717Z,13.9
2019-05-25T03:54:00.200Z,14
2019-05-25T03:56:07.611Z,13.6
2019-05-25T03:58:12.312Z,13.7
2019-05-25T03:59:14.488Z,13.9
2019-05-25T04:01:18.960Z,14.1
2019-05-25T04:03:23.960Z,13.8
2019-05-25T04:05:28.395Z,13.6
2019-05-25T04:06:30.550Z,13.8
2019-05-25T04:08:35.378Z,13.6
2019-05-25T04:10:40.372Z,13.8
2019-05-25T04:11:42.564Z,13.7
2019-05-25T04:12:45.055Z,13.8
2019-05-25T04:13:47.218Z,13.6
2019-05-25T04:15:51.647Z,13.5
2019-05-25T04:17:56.094Z,13.8
2019-05-25T04:18:58.322Z,13.6
2019-05-25T04:21:03.124Z,13.7
2019-05-25T04:23:08.439Z,13.9
2019-05-25T04:24:10.631Z,13.7
2019-05-25T04:25:12.808Z,13.8
2019-05-25T04:26:27.782Z,14
2019-05-25T04:28:32.490Z,14.1
2019-05-25T04:30:37.638Z,14
2019-05-25T04:31:39.801Z,14.1
2019-05-25T04:32:41.987Z,13.8
2019-05-25T04:33:44.157Z,13.9
2019-05-25T04:35:48.603Z,13.4
2019-05-25T04:37:52.957Z,14
2019-05-25T04:38:56.244Z,13.9
2019-05-25T04:41:01.347Z,13.9
2019-05-25T04:43:07.148Z,13.8
2019-05-25T04:45:11.856Z,14.3
2019-05-25T04:46:14.334Z,14.4
2019-05-25T04:47:28.599Z,14.1
2019-05-25T04:48:30.804Z,13.8
2019-05-25T04:50:35.593Z,14.3
2019-05-25T04:52:43.042Z,13.9
2019-05-25T04:53:45.549Z,14.1
2019-05-25T04:55:50.792Z,14.2
2019-05-25T04:57:55.234Z,14.4
2019-05-25T04:59:59.928Z,14.4
2019-05-25T05:01:02.084Z,14.5
2019-05-25T05:03:07.089Z,14.4
2019-05-25T05:05:11.934Z,14.7
2019-05-25T05:06:14.491Z,14.5
2019-05-25T05:07:17.064Z,14.6
2019-05-25T05:08:19.249Z,14.3
2019-05-25T05:10:23.593Z,14.7
2019-05-25T05:12:28.027Z,14.4
2019-05-25T05:13:30.521Z,14.2
2019-05-25T05:15:35.228Z,14.4
2019-05-25T05:17:40.328Z,14.5
2019-05-25T05:18:43.094Z,14
2019-05-25T05:19:46.147Z,14.5
2019-05-25T05:20:48.842Z,14.3
2019-05-25T05:22:53.296Z,14.6
2019-05-25T05:24:58.034Z,14.4
2019-05-25T05:26:00.240Z,14.5
2019-05-25T05:28:05.666Z,14.5
2019-05-25T05:30:10.640Z,14.5
2019-05-25T05:31:25.077Z,14.4
2019-05-25T05:32:29.469Z,14.5
2019-05-25T05:33:32.095Z,14.5
2019-05-25T05:34:34.841Z,14.7
2019-05-25T05:35:40.609Z,14.5
2019-05-25T05:37:45.713Z,13.9
2019-05-25T05:39:50.988Z,14.2
2019-05-25T05:40:53.249Z,14.2
2019-05-25T05:42:57.703Z,14.3
2019-05-25T05:45:02.862Z,14.4
2019-05-25T05:47:11.578Z,14.4
2019-05-25T05:48:14.055Z,14.3
2019-05-25T05:50:18.988Z,14.3
2019-05-25T05:52:23.894Z,14.5
2019-05-25T05:53:26.088Z,14.7
2019-05-25T05:54:28.308Z,14.8
2019-05-25T05:55:30.567Z,14.8
2019-05-25T05:57:35.027Z,14.8
2019-05-25T05:59:39.467Z,14.6
2019-05-25T06:00:41.680Z,14.7
2019-05-25T06:02:46.419Z,14.7
2019-05-25T06:04:50.742Z,14.4
2019-05-25T06:05:53.301Z,14.6
2019-05-25T06:06:55.900Z,14.5
2019-05-25T06:07:58.066Z,14.4
2019-05-25T06:10:02.829Z,14.7
2019-05-25T06:12:08.000Z,14.7
2019-05-25T06:13:10.183Z,14.6
2019-05-25T06:15:14.596Z,14.4
2019-05-25T06:17:19.036Z,14.7
2019-05-25T06:19:23.879Z,14.9
2019-05-25T06:20:26.451Z,15
2019-05-25T06:22:31.582Z,14.8
2019-05-25T06:24:36.446Z,14.9
2019-05-25T06:25:39.361Z,14.8
2019-05-25T06:26:41.491Z,14.6
2019-05-25T06:27:44.671Z,14.9
2019-05-25T06:29:49.141Z,14.9
2019-05-25T06:31:53.939Z,14.6
2019-05-25T06:32:56.081Z,14.7
2019-05-25T06:35:05.750Z,14.8
2019-05-25T06:36:15.476Z,15.1
2019-05-25T06:37:19.878Z,14.8
2019-05-25T06:39:26.801Z,14.9
2019-05-25T06:40:29.492Z,15.1
2019-05-25T06:42:34.719Z,15.3
2019-05-25T06:44:39.558Z,15.5
2019-05-25T06:46:44.364Z,15.2
2019-05-25T06:47:46.575Z,15.1
2019-05-25T06:49:51.687Z,15.1
2019-05-25T06:51:56.724Z,15.3
2019-05-25T06:52:59.355Z,15.3
2019-05-25T06:54:01.846Z,15.2
2019-05-25T06:55:04.435Z,15.1
2019-05-25T06:57:08.947Z,15
2019-05-25T06:59:13.405Z,15.3
2019-05-25T07:00:15.582Z,15.6
2019-05-25T07:02:24.133Z,15.4
2019-05-25T07:04:29.195Z,15.8
2019-05-25T07:06:33.896Z,16.1
2019-05-25T07:07:36.518Z,16.2
2019-05-25T07:09:41.074Z,16.2
2019-05-25T07:11:46.374Z,16
2019-05-25T07:12:48.530Z,16.1
2019-05-25T07:13:50.708Z,16.3
2019-05-25T07:14:52.910Z,16.2
2019-05-25T07:16:10.175Z,16.2
2019-05-25T07:17:12.633Z,16.2
2019-05-25T07:19:16.945Z,16.1
2019-05-25T07:21:21.426Z,16.4
2019-05-25T07:22:23.648Z,16.3
2019-05-25T07:24:28.466Z,15.6
2019-05-25T07:26:33.139Z,15.5
2019-05-25T07:27:35.621Z,15.9
2019-05-25T07:28:38.075Z,15.8
2019-05-25T07:29:40.613Z,15.9
2019-05-25T07:31:45.045Z,15.8
2019-05-25T07:33:50.127Z,15.8
2019-05-25T07:34:52.411Z,15.6
2019-05-25T07:37:00.185Z,15.3
2019-05-25T07:39:05.271Z,15.7
2019-05-25T07:41:10.014Z,16.3
2019-05-25T07:42:12.477Z,16.1
2019-05-25T07:44:17.259Z,16.1
2019-05-25T07:46:21.677Z,15.6
2019-05-25T07:47:24.172Z,15.9
2019-05-25T07:48:26.283Z,15.7
2019-05-25T07:49:28.818Z,15.6
2019-05-25T07:51:33.882Z,15.9
2019-05-25T07:53:38.350Z,16.3
2019-05-25T07:54:40.920Z,16.3
2019-05-25T07:56:45.287Z,15.5
2019-05-25T07:58:49.938Z,15.7
2019-05-25T07:59:52.126Z,15.7
2019-05-25T08:00:54.293Z,15.9
2019-05-25T08:01:57.101Z,15.9
2019-05-25T08:04:01.546Z,15.8
2019-05-25T08:06:06.251Z,16
2019-05-25T08:07:08.378Z,16.2
2019-05-25T08:09:12.822Z,15.2
2019-05-25T08:11:17.301Z,15.6
2019-05-25T08:12:19.503Z,15.7
2019-05-25T08:13:21.676Z,15.8
2019-05-25T08:14:24.121Z,16.1
2019-05-25T08:16:28.487Z,16.4
2019-05-25T08:18:33.464Z,16
2019-05-25T08:19:35.674Z,16.1
2019-05-25T08:21:40.128Z,15.7
2019-05-25T08:23:44.609Z,16.1
2019-05-25T08:25:49.053Z,16.4
2019-05-25T08:26:51.229Z,16.3
2019-05-25T08:28:55.943Z,16.5
2019-05-25T08:31:03.071Z,17.2
2019-05-25T08:32:05.538Z,17.3
2019-05-25T08:33:08.012Z,17.2
2019-05-25T08:34:10.550Z,16.5
2019-05-25T08:36:15.448Z,17
2019-05-25T08:38:20.101Z,16.8
2019-05-25T08:39:22.299Z,16.4
2019-05-25T08:41:27.041Z,16.7
2019-05-25T08:43:31.759Z,16.8
2019-05-25T08:45:36.202Z,16.3
2019-05-25T08:46:38.682Z,15.8
2019-05-25T08:48:43.368Z,16
2019-05-25T08:50:48.486Z,16.3
2019-05-25T08:51:50.695Z,16
2019-05-25T08:52:52.883Z,16.3
2019-05-25T08:53:55.050Z,16.4
2019-05-25T08:56:00.526Z,16
2019-05-25T08:58:05.864Z,16.5
2019-05-25T08:59:08.414Z,16.7
2019-05-25T09:01:13.164Z,16.8
2019-05-25T09:03:18.326Z,16.7
2019-05-25T09:05:22.729Z,16.5
2019-05-25T09:06:24.943Z,16.4
2019-05-25T09:08:30.064Z,16.5
2019-05-25T09:10:34.572Z,16.8
2019-05-25T09:11:36.735Z,16.6
2019-05-25T09:12:38.942Z,16.5
2019-05-25T09:13:41.118Z,16.2
2019-05-25T09:15:45.851Z,16.6
2019-05-25T09:17:50.668Z,16.2
2019-05-25T09:18:53.544Z,16.2
2019-05-25T09:20:57.900Z,16.7
2019-05-25T09:23:07.587Z,17
2019-05-25T09:25:12.316Z,16.9
2019-05-25T09:26:14.844Z,17.1
2019-05-25T09:28:19.745Z,17.6
2019-05-25T09:30:24.847Z,17.6
2019-05-25T09:31:27.129Z,17.4
2019-05-25T09:32:30.821Z,17.3
2019-05-25T09:33:33.175Z,17.1
2019-05-25T09:35:38.112Z,17
2019-05-25T09:37:44.632Z,17.6
2019-05-25T09:38:47.487Z,17.4
2019-05-25T09:40:52.867Z,16.7
2019-05-25T09:42:58.059Z,17.1
2019-05-25T09:45:04.186Z,17.3
2019-05-25T09:46:09.605Z,17.5
2019-05-25T09:48:15.763Z,17.5
2019-05-25T09:50:21.769Z,17.6
2019-05-25T09:52:27.901Z,18
2019-05-25T09:53:30.651Z,17.2
2019-05-25T09:55:35.474Z,17.4
2019-05-25T09:57:43.288Z,17.2
2019-05-25T09:58:45.815Z,17
2019-05-25T09:59:48.090Z,17
2019-05-25T10:00:50.425Z,17.6
2019-05-25T10:02:56.581Z,16.9
2019-05-25T10:05:01.302Z,17.3
2019-05-25T10:06:14.264Z,17.6
2019-05-25T10:07:16.448Z,17.7
2019-05-25T10:08:19.042Z,17.8
2019-05-25T10:10:25.912Z,17.6
2019-05-25T10:12:32.987Z,18.2
2019-05-25T10:13:36.474Z,18
2019-05-25T10:15:41.848Z,17.5
2019-05-25T10:17:48.667Z,17.9
2019-05-25T10:19:55.930Z,17.8
2019-05-25T10:20:58.750Z,18
2019-05-25T10:23:04.063Z,17.7
2019-05-25T10:25:10.046Z,18
2019-05-25T10:26:12.581Z,18
2019-05-25T10:27:15.600Z,18.1
2019-05-25T10:28:20.582Z,18.2
2019-05-25T10:29:38.756Z,18.1
2019-05-25T10:30:40.906Z,18
2019-05-25T10:32:49.765Z,17.9
2019-05-25T10:34:56.448Z,17.6
2019-05-25T10:36:00.339Z,17.8
2019-05-25T10:38:06.338Z,17.6
2019-05-25T10:40:16.282Z,17.8
2019-05-25T10:41:19.589Z,17.6
2019-05-25T10:42:21.993Z,17.8
2019-05-25T10:43:25.191Z,17.5
2019-05-25T10:45:34.213Z,17.9
2019-05-25T10:47:42.154Z,17.5
2019-05-25T10:48:45.988Z,17.6
2019-05-25T10:50:54.919Z,17.2
2019-05-25T10:52:59.992Z,17.1
2019-05-25T10:55:04.826Z,17.2
2019-05-25T10:56:07.393Z,17.2
2019-05-25T10:58:15.184Z,17.6
2019-05-25T11:00:19.683Z,17.7
2019-05-25T11:01:22.960Z,17
2019-05-25T11:02:25.182Z,17.5
2019-05-25T11:03:27.386Z,17.6
2019-05-25T11:05:32.210Z,17
2019-05-25T11:07:38.334Z,17
2019-05-25T11:08:40.533Z,17.1
2019-05-25T11:09:42.783Z,17.2
2019-05-25T11:10:45.251Z,17.5
2019-05-25T11:12:49.639Z,17.4
2019-05-25T11:14:54.484Z,17.5
2019-05-25T11:15:56.955Z,17.4
2019-05-25T11:18:02.110Z,17.7
2019-05-25T11:20:07.231Z,17.2
2019-05-25T11:21:09.773Z,17.3
2019-05-25T11:22:11.995Z,17.7
2019-05-25T11:23:14.229Z,17.9
2019-05-25T11:25:18.955Z,18.4
2019-05-25T11:27:23.392Z,17.6
2019-05-25T11:28:29.008Z,18.1
2019-05-25T11:30:34.567Z,18.4
2019-05-25T11:32:41.597Z,17.3
2019-05-25T11:34:47.139Z,17.9
2019-05-25T11:35:49.319Z,18.2
2019-05-25T11:37:54.152Z,18
2019-05-25T11:39:58.986Z,18.1
2019-05-25T11:42:04.258Z,18.5
2019-05-25T11:43:06.801Z,18
2019-05-25T11:45:11.257Z,18.2
2019-05-25T11:47:15.708Z,18.4
2019-05-25T11:48:18.241Z,18.3
2019-05-25T11:50:26.269Z,17.9
2019-05-25T11:52:31.127Z,18.1
2019-05-25T11:54:35.866Z,17.7
2019-05-25T11:55:38.053Z,17.8
2019-05-25T11:57:42.811Z,17.6
2019-05-25T11:59:51.096Z,17.5
2019-05-25T12:01:55.578Z,17.8
2019-05-25T12:02:57.778Z,18
2019-05-25T12:04:00.383Z,18.3
2019-05-25T12:06:05.503Z,18.4
2019-05-25T12:08:09.941Z,18.8
2019-05-25T12:10:14.904Z,18.5
2019-05-25T12:11:17.088Z,18.8
2019-05-25T12:13:21.785Z,18.9
2019-05-25T12:15:26.267Z,18.8
2019-05-25T12:16:28.854Z,19
2019-05-25T12:17:31.056Z,18.9
2019-05-25T12:18:33.306Z,18.7
2019-05-25T12:20:38.184Z,18.2
2019-05-25T12:22:44.070Z,18.3
2019-05-25T12:23:46.244Z,18.4
2019-05-25T12:25:51.699Z,19.2
2019-05-25T12:27:56.080Z,19.1
2019-05-25T12:30:00.538Z,18.9
2019-05-25T12:31:02.745Z,18.9
2019-05-25T12:33:08.560Z,19.2
2019-05-25T12:35:13.302Z,19.2
2019-05-25T12:36:15.602Z,19.2
2019-05-25T12:37:18.200Z,19.2
2019-05-25T12:38:20.384Z,19.1
2019-05-25T12:40:29.065Z,19.4
2019-05-25T12:42:34.374Z,19.3
2019-05-25T12:43:36.588Z,19.1
2019-05-25T12:45:43.419Z,19.2
2019-05-25T12:47:48.558Z,19.2
2019-05-25T12:49:54.432Z,19.4
2019-05-25T12:50:56.616Z,19.4
2019-05-25T12:53:01.904Z,19.5
2019-05-25T12:55:06.641Z,19.6
2019-05-25T12:57:11.454Z,19.4
2019-05-25T12:58:13.623Z,19.4
2019-05-25T13:00:18.578Z,19.5
2019-05-25T13:02:22.967Z,19.5
2019-05-25T13:03:29.027Z,19.2
2019-05-25T13:04:31.996Z,19.5
2019-05-25T13:05:36.297Z,19.5
2019-05-25T13:07:41.019Z,19.5
2019-05-25T13:09:47.446Z,20.7
2019-05-25T13:10:49.642Z,20.8
2019-05-25T13:11:51.850Z,20.7
2019-05-25T13:12:54.438Z,20.3
2019-05-25T13:14:59.159Z,20.4
2019-05-25T13:17:05.001Z,20.7
2019-05-25T13:18:07.202Z,21.1
2019-05-25T13:20:11.925Z,21.1
2019-05-25T13:22:16.397Z,20.4
2019-05-25T13:23:18.574Z,20.6
2019-05-25T13:24:21.007Z,20.5
2019-05-25T13:25:23.162Z,20.2
2019-05-25T13:27:28.014Z,20
2019-05-25T13:29:33.011Z,19.8
2019-05-25T13:30:35.508Z,19.7
2019-05-25T13:32:40.369Z,20.1
2019-05-25T13:34:44.814Z,20.1
2019-05-25T13:36:50.483Z,20.1
2019-05-25T13:37:52.883Z,20.3
2019-05-25T13:39:57.962Z,21.3
2019-05-25T13:42:02.669Z,21.7
2019-05-25T13:43:04.892Z,21.9
2019-05-25T13:44:07.094Z,21.4
2019-05-25T13:45:09.304Z,21.4
2019-05-25T13:47:14.565Z,21.2
2019-05-25T13:49:19.352Z,21.4
2019-05-25T13:50:21.556Z,21.5
2019-05-25T13:52:26.001Z,21.2
2019-05-25T13:54:30.428Z,20.9
2019-05-25T13:56:34.850Z,20.7
2019-05-25T13:57:37.121Z,20.8
2019-05-25T13:59:42.597Z,20.5
2019-05-25T14:01:46.975Z,20.4
2019-05-25T14:02:49.165Z,20.5
2019-05-25T14:03:55.949Z,20
2019-05-25T14:04:58.407Z,20.9
2019-05-25T14:07:03.117Z,21.5
2019-05-25T14:09:07.842Z,21.3
2019-05-25T14:10:10.497Z,21.3
2019-05-25T14:11:12.976Z,21
2019-05-25T14:12:15.598Z,21
2019-05-25T14:14:20.038Z,20
2019-05-25T14:16:24.478Z,20.4
2019-05-25T14:17:26.646Z,20.7
2019-05-25T14:19:32.474Z,20.9
2019-05-25T14:21:36.927Z,21.2
2019-05-25T14:22:39.131Z,21.3
2019-05-25T14:23:41.332Z,21.1
2019-05-25T14:24:43.526Z,21
2019-05-25T14:26:47.941Z,20.6
2019-05-25T14:28:52.773Z,21.1
2019-05-25T14:29:55.279Z,21.3
2019-05-25T14:32:00.122Z,21.4
2019-05-25T14:34:05.456Z,21.5
2019-05-25T14:36:10.682Z,21
2019-05-25T14:37:13.132Z,20.8
2019-05-25T14:39:17.899Z,20.5
2019-05-25T14:41:23.017Z,19.8
2019-05-25T14:42:25.481Z,19.9
2019-05-25T14:43:27.997Z,20.6
2019-05-25T14:44:30.191Z,20.5
2019-05-25T14:46:38.358Z,20
2019-05-25T14:48:43.405Z,20.3
2019-05-25T14:49:45.546Z,20.1
2019-05-25T14:51:50.413Z,20.6
2019-05-25T14:54:02.559Z,20.3
2019-05-25T14:56:12.968Z,20.2
2019-05-25T14:57:28.914Z,20.6
2019-05-25T14:59:42.557Z,20.3
2019-05-25T15:02:05.560Z,20
2019-05-25T15:03:09.123Z,20
2019-05-25T15:04:12.261Z,19.8
2019-05-25T15:05:18.359Z,19.6
2019-05-25T15:06:25.829Z,19.7
2019-05-25T15:07:29.953Z,19.7
2019-05-25T15:09:35.324Z,19.1
2019-05-25T15:10:42.011Z,19.4
2019-05-25T15:12:53.319Z,19.7
2019-05-25T15:15:02.746Z,20.1
2019-05-25T15:16:05.862Z,20.2
2019-05-25T15:18:13.271Z,19.9
2019-05-25T15:20:23.527Z,19.8
2019-05-25T15:21:31.154Z,20
2019-05-25T15:22:39.551Z,20.1
2019-05-25T15:23:43.966Z,19.5
2019-05-25T15:25:53.672Z,19.4
2019-05-25T15:27:59.275Z,19.3
2019-05-25T15:29:02.788Z,19.2
2019-05-25T15:31:14.263Z,19
2019-05-25T15:32:23.579Z,18.9
2019-05-25T15:33:34.373Z,19.2
2019-05-25T15:35:39.601Z,19
2019-05-25T15:36:41.784Z,19.7
2019-05-25T15:38:52.147Z,19.3
2019-05-25T15:40:09.845Z,19.7
2019-05-25T15:41:12.612Z,19.6
2019-05-25T15:43:16.899Z,19.7
2019-05-25T15:44:18.982Z,20.2
2019-05-25T15:46:23.799Z,20
2019-05-25T15:48:28.080Z,20.2
2019-05-25T15:50:37.256Z,20.4
2019-05-25T15:51:39.352Z,20.4
2019-05-25T15:53:43.708Z,20.4
2019-05-25T15:55:48.280Z,20.5
2019-05-25T15:56:50.388Z,21
2019-05-25T15:57:52.824Z,20.9
2019-05-25T15:58:54.917Z,20.9
2019-05-25T16:00:59.459Z,21.3
2019-05-25T16:03:04.543Z,21.2
2019-05-25T16:04:06.646Z,21.4
2019-05-25T16:06:11.244Z,21.3
2019-05-25T16:08:15.552Z,20.9
2019-05-25T16:09:17.650Z,20.8
2019-05-25T16:10:22.308Z,20.8
2019-05-25T16:11:37.990Z,21
2019-05-25T16:13:48.167Z,21.1
2019-05-25T16:15:52.440Z,21.2
2019-05-25T16:17:56.711Z,20.9
2019-05-25T16:18:58.807Z,21.3
2019-05-25T16:21:03.168Z,20.5
2019-05-25T16:23:07.450Z,20.3
2019-05-25T16:24:09.858Z,20.1
2019-05-25T16:25:12.432Z,20.3
2019-05-25T16:26:14.546Z,20.3
2019-05-25T16:28:18.916Z,19.9
2019-05-25T16:30:23.161Z,20
2019-05-25T16:31:25.265Z,19.8
2019-05-25T16:33:29.814Z,19.5
2019-05-25T16:35:34.058Z,19.5
2019-05-25T16:36:36.182Z,19.7
2019-05-25T16:37:40.727Z,19.8
2019-05-25T16:38:43.026Z,19.9
2019-05-25T16:40:47.359Z,19.6
2019-05-25T16:42:52.693Z,19.2
2019-05-25T16:43:56.013Z,19.2
2019-05-25T16:45:06.150Z,19.2
2019-05-25T16:46:09.757Z,19.1
2019-05-25T16:48:19.527Z,19.3
2019-05-25T16:50:27.430Z,19
2019-05-25T16:51:31.245Z,19.1
2019-05-25T16:52:35.456Z,19.2
2019-05-25T16:53:38.004Z,19.3
2019-05-25T16:55:44.496Z,18.7
2019-05-25T16:57:51.197Z,18.6
2019-05-25T16:58:53.780Z,18.7
2019-05-25T17:01:00.681Z,18.6
2019-05-25T17:03:06.835Z,18.1
2019-05-25T17:04:10.323Z,18.5
2019-05-25T17:05:13.193Z,18.4
2019-05-25T17:06:15.564Z,18.5
2019-05-25T17:08:23.576Z,18.5
2019-05-25T17:10:30.141Z,18.3
2019-05-25T17:11:34.190Z,18.3
2019-05-25T17:12:39.980Z,18
2019-05-25T17:13:43.775Z,17.9
2019-05-25T17:15:50.701Z,17.5
2019-05-25T17:17:58.115Z,18
2019-05-25T17:19:01.589Z,18
2019-05-25T17:21:07.775Z,18.1
2019-05-25T17:23:16.207Z,17.9
2019-05-25T17:25:25.313Z,17.9
2019-05-25T17:26:28.357Z,17.8
2019-05-25T17:28:35.894Z,18.1
2019-05-25T17:30:42.038Z,18
2019-05-25T17:32:47.670Z,17.7
2019-05-25T17:33:51.034Z,17.7
2019-05-25T17:35:57.509Z,17.8
2019-05-25T17:38:05.637Z,17.8
2019-05-25T17:39:08.966Z,17.9
2019-05-25T17:40:13.109Z,17.8
2019-05-25T17:41:16.145Z,17.4
2019-05-25T17:43:20.548Z,17.4
2019-05-25T17:45:24.857Z,17.8
2019-05-25T17:46:26.887Z,17.9
2019-05-25T17:47:29.643Z,17.2
2019-05-25T17:48:32.276Z,17.4
2019-05-25T17:50:36.861Z,17.6
2019-05-25T17:52:41.769Z,17.8
2019-05-25T17:53:43.884Z,17.9
2019-05-25T17:55:48.394Z,17.5
2019-05-25T17:57:52.669Z,17.3
2019-05-25T17:58:55.052Z,17.5
2019-05-25T18:00:00.691Z,17.6
2019-05-25T18:01:02.814Z,17.7
2019-05-25T18:03:07.000Z,17
2019-05-25T18:05:11.796Z,17.7
2019-05-25T18:06:13.954Z,17.2
2019-05-25T18:08:18.236Z,17.4
2019-05-25T18:10:22.859Z,17.2
2019-05-25T18:12:27.080Z,16.7
2019-05-25T18:13:30.289Z,16.7
2019-05-25T18:15:35.479Z,17
2019-05-25T18:17:40.171Z,16.9
2019-05-25T18:18:42.255Z,17.1
2019-05-25T18:19:44.805Z,17.3
2019-05-25T18:20:49.627Z,17.3
2019-05-25T18:22:54.940Z,17.4
2019-05-25T18:24:59.167Z,17.1
2019-05-25T18:26:01.273Z,17.1
2019-05-25T18:27:03.863Z,17.1
2019-05-25T18:28:05.966Z,17.3
2019-05-25T18:30:10.484Z,16.6
2019-05-25T18:32:15.749Z,16.9
2019-05-25T18:33:18.533Z,17
2019-05-25T18:35:26.022Z,16.9
2019-05-25T18:37:30.435Z,17.1
2019-05-25T18:39:35.269Z,16.3
2019-05-25T18:40:37.388Z,16.5
2019-05-25T18:42:41.711Z,16.8
2019-05-25T18:44:46.349Z,16.5
2019-05-25T18:45:48.886Z,16.2
2019-05-25T18:46:51.025Z,16.4
2019-05-25T18:47:53.176Z,16.5
2019-05-25T18:49:57.761Z,16
2019-05-25T18:52:02.288Z,15.9
2019-05-25T18:53:04.793Z,16
2019-05-25T18:55:10.429Z,16.2
2019-05-25T18:57:14.938Z,15.9
2019-05-25T18:58:17.376Z,16
2019-05-25T18:59:19.802Z,16.4
2019-05-25T19:00:21.867Z,16.3
2019-05-25T19:02:26.159Z,16
2019-05-25T19:05:01.371Z,15.9
2019-05-25T19:06:04.931Z,15.8
2019-05-25T19:07:07.342Z,16.2
2019-05-25T19:08:09.482Z,15.8
2019-05-25T19:09:11.695Z,16.2
2019-05-25T19:10:14.061Z,15.9
2019-05-25T19:12:18.305Z,15.9
2019-05-25T19:14:23.095Z,16.2
2019-05-25T19:15:25.180Z,16.2
2019-05-25T19:17:29.446Z,16
2019-05-25T19:19:33.693Z,16.3
2019-05-25T19:21:38.591Z,15.7
2019-05-25T19:22:41.085Z,15.9
2019-05-25T19:24:45.581Z,16.1
2019-05-25T19:26:50.537Z,15.5
2019-05-25T19:27:53.092Z,16.2
2019-05-25T19:28:55.179Z,16.4
2019-05-25T19:29:57.663Z,16.3
2019-05-25T19:32:02.267Z,16
2019-05-25T19:34:06.803Z,16.1
2019-05-25T19:35:08.906Z,16
2019-05-25T19:37:19.729Z,15.4
2019-05-25T19:39:23.994Z,15.9
2019-05-25T19:41:28.846Z,15.3
2019-05-25T19:42:30.958Z,15.8
2019-05-25T19:44:35.177Z,15.7
2019-05-25T19:46:39.690Z,16.1
2019-05-25T19:47:41.758Z,16
2019-05-25T19:48:43.855Z,16.2
2019-05-25T19:49:45.995Z,16
2019-05-25T19:51:50.641Z,16.1
2019-05-25T19:53:55.038Z,16
2019-05-25T19:54:57.419Z,15.7
2019-05-25T19:57:02.029Z,15.8
2019-05-25T19:59:06.278Z,16.1
2019-05-25T20:01:10.593Z,16.2
2019-05-25T20:02:12.677Z,16.2
2019-05-25T20:04:17.185Z,16
2019-05-25T20:06:21.488Z,15.9
2019-05-25T20:07:23.577Z,15.7
2019-05-25T20:08:25.897Z,15.7
2019-05-25T20:09:27.984Z,15.7
2019-05-25T20:11:32.224Z,15.8
2019-05-25T20:13:37.115Z,15.7
2019-05-25T20:14:39.194Z,15.7
2019-05-25T20:16:43.530Z,15.8
2019-05-25T20:18:47.939Z,15.8
2019-05-25T20:19:50.021Z,15.9
2019-05-25T20:20:52.124Z,15.8
2019-05-25T20:21:54.215Z,15.7
2019-05-25T20:23:58.441Z,15.7
2019-05-25T20:26:03.374Z,15.8
2019-05-25T20:27:05.745Z,15.9
2019-05-25T20:29:10.253Z,15.3
2019-05-25T20:31:15.034Z,15.4
2019-05-25T20:33:29.478Z,15.7
2019-05-25T20:34:31.809Z,15.6
2019-05-25T20:36:38.103Z,15.1
2019-05-25T20:38:43.054Z,15.6
2019-05-25T20:40:47.284Z,15.3
2019-05-25T20:41:49.764Z,15
2019-05-25T20:43:54.530Z,15.2
2019-05-25T20:45:58.818Z,15.3
2019-05-25T20:47:01.592Z,15.4
2019-05-25T20:48:04.033Z,15.3
2019-05-25T20:49:06.252Z,15.5
2019-05-25T20:51:10.790Z,15.5
2019-05-25T20:53:15.380Z,15.4
2019-05-25T20:54:17.857Z,15.4
2019-05-25T20:56:22.103Z,15.3
2019-05-25T20:58:26.909Z,15.1
2019-05-25T20:59:28.992Z,15.5
2019-05-25T21:00:31.530Z,15.4
2019-05-25T21:01:34.441Z,15.4
2019-05-25T21:03:38.997Z,15.5
2019-05-25T21:05:52.337Z,15.4
2019-05-25T21:06:54.392Z,15.1
2019-05-25T21:07:56.487Z,15
2019-05-25T21:08:58.565Z,15.2
2019-05-25T21:11:03.922Z,15.4
2019-05-25T21:13:08.752Z,15.4
2019-05-25T21:14:10.863Z,15.4
2019-05-25T21:15:13.229Z,15.1
2019-05-25T21:16:15.316Z,15.1
2019-05-25T21:18:20.139Z,15.1
2019-05-25T21:20:24.409Z,14.7
2019-05-25T21:21:26.513Z,15
2019-05-25T21:23:30.721Z,15.2
2019-05-25T21:25:35.216Z,14.9
2019-05-25T21:26:37.780Z,15.2
2019-05-25T21:27:40.572Z,15.2
2019-05-25T21:28:42.893Z,15.2
2019-05-25T21:30:47.132Z,14.8
2019-05-25T21:32:51.628Z,15.1
2019-05-25T21:33:53.998Z,15.1